Time;durP1;ratioP1;P1;durP2;ratioP2;P2;SDS_P1;SDS_P2;PMS_P1;PMS_P2;Temp;Humidity;BMP_temperature;BMP_pressure;BME280_temperature;BME280_humidity;BME280_pressure;Samples;Min_cycle;Max_cycle;Signal;HPM_P1;HPM_P2
2022/08/25 00:00:04;;;;;;;;;;;;;;;;;;345778;28;976;-66
2022/08/25 00:00:14;;;;;;;;;;;;;;;;;;345795;28;987;-66
2022/08/25 00:00:25;;;;;;;;;;;;;;;;;;345765;28;932;-66
2022/08/25 00:00:35;;;;;;;;;;;;;;;;;;345789;28;928;-66
2022/08/25 00:00:47;;;;;;;;;;;;;;;;;;345776;28;1007;-66
2022/08/25 00:00:57;;;;;;;;;;;;;;;;;;345775;28;920;-66
2022/08/25 00:01:08;;;;;;;;;;;;;;;;;;345805;28;968;-66
2022/08/25 00:01:23;;;;;;;;;;;;;;;;;;345764;28;971;-66
2022/08/25 00:01:35;;;;;;;;;;;;;;;;;;345885;28;936;-66
2022/08/25 00:01:47;;;;;;;;;;;;;;;;;;345718;28;924;-66
2022/08/25 00:02:00;;;;;;;;;;;;;;;;;;345792;28;999;-66
2022/08/25 00:02:11;;;;;;;;;;;;;;;;;;345770;28;913;-66
2022/08/25 00:02:21;;;;;;;;;;;;;;;;;;345770;28;972;-66
2022/08/25 00:02:31;;;;;;;;;;;;;;;;;;345753;28;818;-66
2022/08/25 00:02:41;;;;;;;;;;;;;;;;;;345774;28;909;-66
2022/08/25 00:02:53;;;;;;;;;;;;;;;;;;345739;28;1066;-66
2022/08/25 00:03:03;;;;;;;;;;;;;;;;;;345730;28;975;-66
2022/08/25 00:03:14;;;;;;;;;;;;;;;;;;345625;28;1288;-66
2022/08/25 00:03:24;;;;;;;;;;;;;;;;;;345701;28;1019;-67
2022/08/25 00:03:34;;;;;;;;;;;;;;;;;;345811;28;896;-66
2022/08/25 00:03:45;;;;;;;;;;;;;;;;;;345746;28;909;-66
2022/08/25 00:03:59;;;;;;;;;;;;;;;;;;345794;28;937;-66
2022/08/25 00:04:11;;;;;;;;;;;;;;;;;;345708;28;1261;-66
2022/08/25 00:04:22;;;;;;;;;;;;;;;;;;345826;28;908;-66
2022/08/25 00:04:33;;;;;;;;;;;;;;;;;;345844;28;762;-66
2022/08/25 00:04:44;;;;;;;;;;;;;;;;;;345719;28;932;-66
2022/08/25 00:04:54;;;;;;;;;;;;;;;;;;345822;28;849;-66
2022/08/25 00:05:04;;;;;;;;;;;;;;;;;;345781;28;972;-66
2022/08/25 00:05:14;;;;;;;;;;;;;;;;;;344173;28;1153;-66
2022/08/25 00:05:26;;;;;;;;;;;;;;;;;;344380;28;905;-66
2022/08/25 00:05:37;;;;;;;;;;;;;;;;;;344441;28;924;-66
2022/08/25 00:05:47;;;;;;;;;;;;;;;;;;344350;28;948;-66
2022/08/25 00:05:57;;;;;;;;;;;;;;;;;;344465;28;940;-66
2022/08/25 00:06:08;;;;;;;;;;;;;;;;;;344463;28;881;-66
2022/08/25 00:06:18;;;;;;;;;;;;;;;;;;344433;28;984;-66
2022/08/25 00:06:29;;;;;;;;;;;;;;;;;;344400;28;990;-66
2022/08/25 00:06:40;;;;;;;;;;;;;;;;;;344434;28;980;-66
2022/08/25 00:06:51;;;;;;;;;;;;;;;;;;344368;28;968;-66
2022/08/25 00:07:02;;;;;;;;;;;;;;;;;;344462;28;945;-66
2022/08/25 00:07:13;;;;;;;;;;;;;;;;;;344411;28;878;-66
2022/08/25 00:07:23;;;;;;;;;;;;;;;;;;344228;28;1317;-66
2022/08/25 00:07:33;;;;;;;;;;;;;;;;;;344153;28;1332;-66
2022/08/25 00:07:43;;;;;;;;;;;;;;;;;;344408;28;861;-66
2022/08/25 00:07:54;;;;;;;;;;;;;;;;;;344479;28;778;-66
2022/08/25 00:08:05;;;;;;;;;;;;;;;;;;344450;28;933;-66
2022/08/25 00:08:15;;;;;;;;;;;;;;;;;;344425;28;923;-66
2022/08/25 00:08:25;;;;;;;;;;;;;;;;;;344405;28;995;-66
2022/08/25 00:08:36;;;;;;;;;;;;;;;;;;344471;28;1020;-66
2022/08/25 00:08:47;;;;;;;;;;;;;;;;;;344384;28;948;-66
2022/08/25 00:08:58;;;;;;;;;;;;;;;;;;344385;28;940;-66
2022/08/25 00:09:09;;;;;;;;;;;;;;;;;;344421;28;940;-66
2022/08/25 00:09:21;;;;;;;;;;;;;;;;;;344396;28;1102;-66
2022/08/25 00:09:32;;;;;;;;;;;;;;;;;;344401;28;933;-67
2022/08/25 00:09:42;;;;;;;;;;;;;;;;;;344286;28;907;-66
2022/08/25 00:09:53;;;;;;;;;;;;;;;;;;344344;28;810;-66
2022/08/25 00:10:04;;;;;;;;;;;;;;;;;;344325;28;909;-66
2022/08/25 00:10:14;;;;;;;;;;;;;;;;;;344335;28;1015;-66
2022/08/25 00:10:24;;;;;;;;;;;;;;;;;;344223;28;1903;-67
2022/08/25 00:10:35;;;;;;;;;;;;;;;;;;344359;28;937;-66
2022/08/25 00:10:45;;;;;;;;;;;;;;;;;;344345;28;933;-66
2022/08/25 00:10:56;;;;;;;;;;;;;;;;;;344313;28;960;-66
2022/08/25 00:11:11;;;;;;;;;;;;;;;;;;344253;28;1031;-66
2022/08/25 00:11:22;;;;;;;;;;;;;;;;;;344303;28;960;-66
2022/08/25 00:11:33;;;;;;;;;;;;;;;;;;344288;28;1235;-66
2022/08/25 00:11:44;;;;;;;;;;;;;;;;;;344375;28;929;-66
2022/08/25 00:11:54;;;;;;;;;;;;;;;;;;344356;28;968;-67
2022/08/25 00:12:05;;;;;;;;;;;;;;;;;;344465;28;1000;-66
2022/08/25 00:12:15;;;;;;;;;;;;;;;;;;344437;28;948;-66
2022/08/25 00:12:25;;;;;;;;;;;;;;;;;;344399;28;988;-66
2022/08/25 00:12:35;;;;;;;;;;;;;;;;;;344378;28;866;-66
2022/08/25 00:12:46;;;;;;;;;;;;;;;;;;344442;28;972;-66
2022/08/25 00:12:56;;;;;;;;;;;;;;;;;;344380;28;999;-66
2022/08/25 00:13:07;;;;;;;;;;;;;;;;;;344458;28;778;-66
2022/08/25 00:13:17;;;;;;;;;;;;;;;;;;344356;28;984;-66
2022/08/25 00:13:28;;;;;;;;;;;;;;;;;;344450;28;853;-66
2022/08/25 00:13:41;;;;;;;;;;;;;;;;;;344339;28;940;-66
2022/08/25 00:13:56;;;;;;;;;;;;;;;;;;344380;28;944;-66
2022/08/25 00:14:08;;;;;;;;;;;;;;;;;;344387;28;957;-66
2022/08/25 00:14:20;;;;;;;;;;;;;;;;;;344426;28;889;-66
2022/08/25 00:14:35;;;;;;;;;;;;;;;;;;344459;28;1004;-66
2022/08/25 00:14:45;;;;;;;;;;;;;;;;;;344414;28;920;-66
2022/08/25 00:14:55;;;;;;;;;;;;;;;;;;344394;28;928;-66
2022/08/25 00:15:08;;;;;;;;;;;;;;;;;;344426;28;952;-66
2022/08/25 00:15:18;;;;;;;;;;;;;;;;;;344460;28;876;-66
2022/08/25 00:15:31;;;;;;;;;;;;;;;;;;344410;28;1000;-67
2022/08/25 00:15:41;;;;;;;;;;;;;;;;;;344474;28;841;-66
2022/08/25 00:15:51;;;;;;;;;;;;;;;;;;344377;28;857;-66
2022/08/25 00:16:01;;;;;;;;;;;;;;;;;;344387;28;1008;-66
2022/08/25 00:16:12;;;;;;;;;;;;;;;;;;344376;28;903;-66
2022/08/25 00:16:24;;;;;;;;;;;;;;;;;;344474;28;916;-66
2022/08/25 00:16:34;;;;;;;;;;;;;;;;;;344430;28;937;-66
2022/08/25 00:16:45;;;;;;;;;;;;;;;;;;344421;28;1027;-66
2022/08/25 00:16:56;;;;;;;;;;;;;;;;;;344348;28;1035;-67
2022/08/25 00:17:06;;;;;;;;;;;;;;;;;;344446;28;924;-66
2022/08/25 00:17:16;;;;;;;;;;;;;;;;;;344444;28;956;-66
2022/08/25 00:17:27;;;;;;;;;;;;;;;;;;344409;28;909;-66
2022/08/25 00:17:37;;;;;;;;;;;;;;;;;;344394;28;932;-66
2022/08/25 00:17:47;;;;;;;;;;;;;;;;;;344413;28;972;-66
2022/08/25 00:17:58;;;;;;;;;;;;;;;;;;344356;28;873;-66
2022/08/25 00:18:09;;;;;;;;;;;;;;;;;;344453;28;948;-66
2022/08/25 00:18:19;;;;;;;;;;;;;;;;;;344396;28;952;-66
2022/08/25 00:18:29;;;;;;;;;;;;;;;;;;344415;28;785;-66
2022/08/25 00:18:40;;;;;;;;;;;;;;;;;;344417;28;913;-66
2022/08/25 00:18:52;;;;;;;;;;;;;;;;;;344430;28;967;-66
2022/08/25 00:19:05;;;;;;;;;;;;;;;;;;344369;28;1019;-67
2022/08/25 00:19:18;;;;;;;;;;;;;;;;;;344382;28;929;-67
2022/08/25 00:19:30;;;;;;;;;;;;;;;;;;344402;28;944;-66
2022/08/25 00:19:41;;;;;;;;;;;;;;;;;;344374;28;980;-66
2022/08/25 00:19:51;;;;;;;;;;;;;;;;;;344366;28;896;-66
2022/08/25 00:20:02;;;;;;;;;;;;;;;;;;344345;28;849;-66
2022/08/25 00:20:13;;;;;;;;;;;;;;;;;;344374;28;977;-66
2022/08/25 00:20:24;;;;;;;;;;;;;;;;;;344443;28;818;-66
2022/08/25 00:20:34;;;;;;;;;;;;;;;;;;344414;28;956;-66
2022/08/25 00:20:46;;;;;;;;;;;;;;;;;;344415;28;937;-66
2022/08/25 00:20:56;;;;;;;;;;;;;;;;;;344409;28;941;-66
2022/08/25 00:21:07;;;;;;;;;;;;;;;;;;344371;28;964;-66
2022/08/25 00:21:17;;;;;;;;;;;;;;;;;;344225;28;925;-66
2022/08/25 00:21:27;;;;;;;;;;;;;;;;;;344113;28;1214;-66
2022/08/25 00:21:39;;;;;;;;;;;;;;;;;;344202;28;912;-66
2022/08/25 00:21:50;;;;;;;;;;;;;;;;;;344371;28;941;-66
2022/08/25 00:22:01;;;;;;;;;;;;;;;;;;344358;28;813;-66
2022/08/25 00:22:11;;;;;;;;;;;;;;;;;;344304;28;1019;-66
2022/08/25 00:22:22;;;;;;;;;;;;;;;;;;344391;28;913;-66
2022/08/25 00:22:32;;;;;;;;;;;;;;;;;;344456;28;790;-66
2022/08/25 00:22:42;;;;;;;;;;;;;;;;;;344382;28;921;-67
2022/08/25 00:22:54;;;;;;;;;;;;;;;;;;344423;28;929;-66
2022/08/25 00:23:04;;;;;;;;;;;;;;;;;;344382;28;895;-66
2022/08/25 00:23:14;;;;;;;;;;;;;;;;;;344403;28;985;-66
2022/08/25 00:23:25;;;;;;;;;;;;;;;;;;344438;28;972;-66
2022/08/25 00:23:35;;;;;;;;;;;;;;;;;;344379;28;983;-66
2022/08/25 00:23:45;;;;;;;;;;;;;;;;;;344393;28;984;-66
2022/08/25 00:23:55;;;;;;;;;;;;;;;;;;344415;28;1000;-66
2022/08/25 00:24:07;;;;;;;;;;;;;;;;;;344342;28;1003;-66
2022/08/25 00:24:19;;;;;;;;;;;;;;;;;;344367;28;885;-66
2022/08/25 00:24:29;;;;;;;;;;;;;;;;;;344397;28;1081;-66
2022/08/25 00:24:39;;;;;;;;;;;;;;;;;;344443;28;1621;-66
2022/08/25 00:24:49;;;;;;;;;;;;;;;;;;344400;28;965;-66
2022/08/25 00:25:00;;;;;;;;;;;;;;;;;;344363;28;872;-67
2022/08/25 00:25:11;;;;;;;;;;;;;;;;;;344409;28;837;-66
2022/08/25 00:25:22;;;;;;;;;;;;;;;;;;344451;28;933;-66
2022/08/25 00:25:32;;;;;;;;;;;;;;;;;;344425;28;941;-66
2022/08/25 00:25:42;;;;;;;;;;;;;;;;;;344362;28;901;-66
2022/08/25 00:25:54;;;;;;;;;;;;;;;;;;344401;28;996;-66
2022/08/25 00:26:04;;;;;;;;;;;;;;;;;;344440;28;941;-66
2022/08/25 00:26:15;;;;;;;;;;;;;;;;;;344369;28;953;-66
2022/08/25 00:26:26;;;;;;;;;;;;;;;;;;344395;28;826;-66
2022/08/25 00:26:38;;;;;;;;;;;;;;;;;;344459;28;920;-66
2022/08/25 00:26:50;;;;;;;;;;;;;;;;;;344408;28;829;-66
2022/08/25 00:27:00;;;;;;;;;;;;;;;;;;344379;28;1307;-66
2022/08/25 00:27:11;;;;;;;;;;;;;;;;;;344354;28;984;-66
2022/08/25 00:27:21;;;;;;;;;;;;;;;;;;344424;28;952;-66
2022/08/25 00:27:31;;;;;;;;;;;;;;;;;;344369;28;980;-67
2022/08/25 00:27:42;;;;;;;;;;;;;;;;;;344396;28;933;-66
2022/08/25 00:27:52;;;;;;;;;;;;;;;;;;344384;28;903;-66
2022/08/25 00:28:03;;;;;;;;;;;;;;;;;;344400;28;976;-66
2022/08/25 00:28:15;;;;;;;;;;;;;;;;;;344353;28;976;-66
2022/08/25 00:28:25;;;;;;;;;;;;;;;;;;344433;28;817;-66
2022/08/25 00:28:36;;;;;;;;;;;;;;;;;;344339;28;1083;-66
2022/08/25 00:28:46;;;;;;;;;;;;;;;;;;344370;28;733;-66
2022/08/25 00:28:56;;;;;;;;;;;;;;;;;;344242;28;1293;-66
2022/08/25 00:29:07;;;;;;;;;;;;;;;;;;344306;28;963;-66
2022/08/25 00:29:18;;;;;;;;;;;;;;;;;;344297;28;805;-66
2022/08/25 00:29:29;;;;;;;;;;;;;;;;;;344272;28;1101;-66
2022/08/25 00:29:40;;;;;;;;;;;;;;;;;;344315;28;976;-66
2022/08/25 00:29:50;;;;;;;;;;;;;;;;;;344325;28;858;-66
2022/08/25 00:30:00;;;;;;;;;;;;;;;;;;344306;28;920;-66
2022/08/25 00:30:13;;;;;;;;;;;;;;;;;;344294;28;917;-66
2022/08/25 00:30:24;;;;;;;;;;;;;;;;;;344240;28;937;-67
2022/08/25 00:30:35;;;;;;;;;;;;;;;;;;344292;28;965;-66
2022/08/25 00:30:45;;;;;;;;;;;;;;;;;;344281;28;988;-66
2022/08/25 00:30:57;;;;;;;;;;;;;;;;;;344392;28;996;-66
2022/08/25 00:31:10;;;;;;;;;;;;;;;;;;344441;28;796;-66
2022/08/25 00:31:22;;;;;;;;;;;;;;;;;;344305;28;869;-66
2022/08/25 00:31:32;;;;;;;;;;;;;;;;;;344439;28;779;-66
2022/08/25 00:31:44;;;;;;;;;;;;;;;;;;344387;28;1027;-66
2022/08/25 00:31:54;;;;;;;;;;;;;;;;;;344379;28;932;-66
2022/08/25 00:32:04;;;;;;;;;;;;;;;;;;344442;28;961;-66
2022/08/25 00:32:15;;;;;;;;;;;;;;;;;;344424;28;905;-66
2022/08/25 00:32:25;;;;;;;;;;;;;;;;;;344364;28;1035;-66
2022/08/25 00:32:36;;;;;;;;;;;;;;;;;;344391;28;809;-66
2022/08/25 00:32:47;;;;;;;;;;;;;;;;;;344384;28;1008;-66
2022/08/25 00:32:58;;;;;;;;;;;;;;;;;;344438;28;979;-66
2022/08/25 00:33:08;;;;;;;;;;;;;;;;;;344346;28;980;-66
2022/08/25 00:33:18;;;;;;;;;;;;;;;;;;344393;28;766;-66
2022/08/25 00:33:30;;;;;;;;;;;;;;;;;;344356;28;932;-66
2022/08/25 00:33:40;;;;;;;;;;;;;;;;;;344462;28;1047;-66
2022/08/25 00:33:51;;;;;;;;;;;;;;;;;;344410;28;866;-66
2022/08/25 00:34:01;;;;;;;;;;;;;;;;;;344324;28;846;-66
2022/08/25 00:34:17;;;;;;;;;;;;;;;;;;344438;28;877;-66
2022/08/25 00:34:30;;;;;;;;;;;;;;;;;;344413;28;822;-66
2022/08/25 00:34:41;;;;;;;;;;;;;;;;;;344341;28;984;-66
2022/08/25 00:34:52;;;;;;;;;;;;;;;;;;344320;28;980;-66
2022/08/25 00:35:02;;;;;;;;;;;;;;;;;;344439;28;817;-66
2022/08/25 00:35:13;;;;;;;;;;;;;;;;;;344107;28;1397;-66
2022/08/25 00:35:23;;;;;;;;;;;;;;;;;;344373;28;999;-66
2022/08/25 00:35:34;;;;;;;;;;;;;;;;;;344421;28;1047;-66
2022/08/25 00:35:44;;;;;;;;;;;;;;;;;;344398;28;924;-66
2022/08/25 00:35:55;;;;;;;;;;;;;;;;;;344385;28;937;-66
2022/08/25 00:36:05;;;;;;;;;;;;;;;;;;344387;28;1084;-66
2022/08/25 00:36:17;;;;;;;;;;;;;;;;;;344439;28;774;-66
2022/08/25 00:36:27;;;;;;;;;;;;;;;;;;344401;28;952;-66
2022/08/25 00:36:38;;;;;;;;;;;;;;;;;;344317;28;1000;-66
2022/08/25 00:36:50;;;;;;;;;;;;;;;;;;344343;28;800;-66
2022/08/25 00:37:02;;;;;;;;;;;;;;;;;;344408;28;1080;-66
2022/08/25 00:37:12;;;;;;;;;;;;;;;;;;344269;28;1043;-66
2022/08/25 00:37:23;;;;;;;;;;;;;;;;;;344362;28;841;-66
2022/08/25 00:37:33;;;;;;;;;;;;;;;;;;344384;28;972;-67
2022/08/25 00:37:43;;;;;;;;;;;;;;;;;;344364;28;1011;-66
2022/08/25 00:37:54;;;;;;;;;;;;;;;;;;344526;28;845;-66
2022/08/25 00:38:04;;;;;;;;;;;;;;;;;;344455;28;1050;-66
2022/08/25 00:38:15;;;;;;;;;;;;;;;;;;344319;28;953;-66
2022/08/25 00:38:25;;;;;;;;;;;;;;;;;;344372;28;1070;-66
2022/08/25 00:38:36;;;;;;;;;;;;;;;;;;344400;28;996;-66
2022/08/25 00:38:48;;;;;;;;;;;;;;;;;;344334;28;1005;-66
2022/08/25 00:38:58;;;;;;;;;;;;;;;;;;344420;28;976;-66
2022/08/25 00:39:09;;;;;;;;;;;;;;;;;;344344;28;917;-66
2022/08/25 00:39:20;;;;;;;;;;;;;;;;;;344434;28;849;-66
2022/08/25 00:39:30;;;;;;;;;;;;;;;;;;344354;28;917;-66
2022/08/25 00:39:40;;;;;;;;;;;;;;;;;;344365;28;1211;-67
2022/08/25 00:39:51;;;;;;;;;;;;;;;;;;344396;28;991;-66
2022/08/25 00:40:03;;;;;;;;;;;;;;;;;;344365;28;945;-66
2022/08/25 00:40:13;;;;;;;;;;;;;;;;;;344388;28;945;-66
2022/08/25 00:40:24;;;;;;;;;;;;;;;;;;344413;28;812;-66
2022/08/25 00:40:35;;;;;;;;;;;;;;;;;;344400;28;861;-66
2022/08/25 00:40:45;;;;;;;;;;;;;;;;;;344328;28;1106;-66
2022/08/25 00:41:05;;;;;;;;;;;;;;;;;;344860;28;1221;-66
2022/08/25 00:41:19;;;;;;;;;;;;;;;;;;345782;28;925;-66
2022/08/25 00:41:29;;;;;;;;;;;;;;;;;;345699;28;794;-66
2022/08/25 00:41:40;;;;;;;;;;;;;;;;;;345728;28;960;-66
2022/08/25 00:41:52;;;;;;;;;;;;;;;;;;345671;28;1168;-66
2022/08/25 00:42:03;;;;;;;;;;;;;;;;;;345722;28;1048;-66
2022/08/25 00:42:14;;;;;;;;;;;;;;;;;;345744;28;967;-66
2022/08/25 00:42:25;;;;;;;;;;;;;;;;;;345764;28;873;-66
2022/08/25 00:42:36;;;;;;;;;;;;;;;;;;345767;28;936;-66
2022/08/25 00:42:46;;;;;;;;;;;;;;;;;;345773;28;886;-66
2022/08/25 00:42:56;;;;;;;;;;;;;;;;;;345725;28;775;-66
2022/08/25 00:43:08;;;;;;;;;;;;;;;;;;345734;28;968;-66
2022/08/25 00:43:19;;;;;;;;;;;;;;;;;;345766;28;881;-66
2022/08/25 00:43:31;;;;;;;;;;;;;;;;;;345709;28;987;-66
2022/08/25 00:43:47;;;;;;;;;;;;;;;;;;345713;28;1027;-66
2022/08/25 00:44:00;;;;;;;;;;;;;;;;;;345711;28;1235;-66
2022/08/25 00:44:12;;;;;;;;;;;;;;;;;;345774;28;983;-66
2022/08/25 00:44:23;;;;;;;;;;;;;;;;;;345784;28;944;-66
2022/08/25 00:44:34;;;;;;;;;;;;;;;;;;345735;28;1005;-66
2022/08/25 00:44:44;;;;;;;;;;;;;;;;;;345762;28;1008;-66
2022/08/25 00:44:55;;;;;;;;;;;;;;;;;;345702;28;921;-66
2022/08/25 00:45:06;;;;;;;;;;;;;;;;;;345712;28;932;-67
2022/08/25 00:45:17;;;;;;;;;;;;;;;;;;345745;28;948;-66
2022/08/25 00:45:27;;;;;;;;;;;;;;;;;;345731;28;900;-66
2022/08/25 00:45:37;;;;;;;;;;;;;;;;;;345722;28;920;-67
2022/08/25 00:45:48;;;;;;;;;;;;;;;;;;345752;28;928;-65
2022/08/25 00:45:58;;;;;;;;;;;;;;;;;;345653;28;1082;-66
2022/08/25 00:46:08;;;;;;;;;;;;;;;;;;345800;28;778;-66
2022/08/25 00:46:32;;;;;;;;;;;;;;;;;;345747;28;953;-66
2022/08/25 00:46:47;;;;;;;;;;;;;;;;;;345716;28;948;-66
2022/08/25 00:46:59;;;;;;;;;;;;;;;;;;345766;28;936;-66
2022/08/25 00:47:09;;;;;;;;;;;;;;;;;;345668;28;940;-66
2022/08/25 00:47:20;;;;;;;;;;;;;;;;;;345729;28;1074;-66
2022/08/25 00:47:30;;;;;;;;;;;;;;;;;;345720;28;917;-66
2022/08/25 00:47:40;;;;;;;;;;;;;;;;;;345786;28;802;-66
2022/08/25 00:47:51;;;;;;;;;;;;;;;;;;345729;28;919;-66
2022/08/25 00:48:01;;;;;;;;;;;;;;;;;;345707;28;964;-66
2022/08/25 00:48:11;;;;;;;;;;;;;;;;;;345727;28;998;-66
2022/08/25 00:48:21;;;;;;;;;;;;;;;;;;345774;28;798;-66
2022/08/25 00:48:31;;;;;;;;;;;;;;;;;;345716;28;952;-66
2022/08/25 00:48:42;;;;;;;;;;;;;;;;;;345669;28;875;-66
2022/08/25 00:48:56;;;;;;;;;;;;;;;;;;345738;28;920;-66
2022/08/25 00:49:10;;;;;;;;;;;;;;;;;;345720;28;956;-66
2022/08/25 00:49:26;;;;;;;;;;;;;;;;;;345681;28;797;-66
2022/08/25 00:49:42;;;;;;;;;;;;;;;;;;345742;28;988;-66
2022/08/25 00:49:57;;;;;;;;;;;;;;;;;;345721;28;1079;-66
2022/08/25 00:50:09;;;;;;;;;;;;;;;;;;345671;28;980;-66
2022/08/25 00:50:21;;;;;;;;;;;;;;;;;;345734;28;477;-66
2022/08/25 00:50:32;;;;;;;;;;;;;;;;;;345677;28;1902;-66
2022/08/25 00:50:43;;;;;;;;;;;;;;;;;;345753;28;798;-66
2022/08/25 00:50:53;;;;;;;;;;;;;;;;;;345688;28;921;-66
2022/08/25 00:51:06;;;;;;;;;;;;;;;;;;345736;28;941;-66
2022/08/25 00:51:20;;;;;;;;;;;;;;;;;;345709;28;885;-66
2022/08/25 00:51:36;;;;;;;;;;;;;;;;;;345757;28;877;-66
2022/08/25 00:51:51;;;;;;;;;;;;;;;;;;345693;28;1019;-66
2022/08/25 00:52:04;;;;;;;;;;;;;;;;;;345747;28;917;-66
2022/08/25 00:52:14;;;;;;;;;;;;;;;;;;345781;28;908;-66
2022/08/25 00:52:28;;;;;;;;;;;;;;;;;;345746;28;983;-66
2022/08/25 00:52:42;;;;;;;;;;;;;;;;;;345669;28;952;-66
2022/08/25 00:52:54;;;;;;;;;;;;;;;;;;345764;28;849;-66
2022/08/25 00:53:05;;;;;;;;;;;;;;;;;;345777;28;908;-66
2022/08/25 00:53:16;;;;;;;;;;;;;;;;;;345736;28;936;-66
2022/08/25 00:53:26;;;;;;;;;;;;;;;;;;345690;28;972;-66
2022/08/25 00:53:38;;;;;;;;;;;;;;;;;;345761;28;987;-66
2022/08/25 00:53:49;;;;;;;;;;;;;;;;;;345701;28;1012;-66
2022/08/25 00:53:59;;;;;;;;;;;;;;;;;;345744;28;998;-66
2022/08/25 00:54:16;;;;;;;;;;;;;;;;;;345742;28;995;-66
2022/08/25 00:54:29;;;;;;;;;;;;;;;;;;345743;28;896;-66
2022/08/25 00:54:51;;;;;;;;;;;;;;;;;;345706;28;1035;-66
2022/08/25 00:55:03;;;;;;;;;;;;;;;;;;345756;28;861;-66
2022/08/25 00:55:23;;;;;;;;;;;;;;;;;;345706;28;916;-66
2022/08/25 00:55:36;;;;;;;;;;;;;;;;;;345779;28;825;-66
2022/08/25 00:55:47;;;;;;;;;;;;;;;;;;345711;28;1077;-66
2022/08/25 00:55:57;;;;;;;;;;;;;;;;;;345738;28;920;-66
2022/08/25 00:56:08;;;;;;;;;;;;;;;;;;345771;28;750;-66
2022/08/25 00:56:18;;;;;;;;;;;;;;;;;;345715;28;921;-66
2022/08/25 00:56:30;;;;;;;;;;;;;;;;;;345732;28;968;-66
2022/08/25 00:56:41;;;;;;;;;;;;;;;;;;345828;28;849;-66
2022/08/25 00:56:52;;;;;;;;;;;;;;;;;;345650;28;1035;-66
2022/08/25 00:57:03;;;;;;;;;;;;;;;;;;345766;28;956;-66
2022/08/25 00:57:15;;;;;;;;;;;;;;;;;;345747;28;786;-66
2022/08/25 00:57:28;;;;;;;;;;;;;;;;;;345677;28;928;-66
2022/08/25 00:57:44;;;;;;;;;;;;;;;;;;345719;28;912;-65
2022/08/25 00:57:57;;;;;;;;;;;;;;;;;;345714;28;862;-66
2022/08/25 00:58:12;;;;;;;;;;;;;;;;;;345739;28;1027;-66
2022/08/25 00:58:25;;;;;;;;;;;;;;;;;;345728;28;952;-66
2022/08/25 00:58:36;;;;;;;;;;;;;;;;;;345702;28;817;-66
2022/08/25 00:58:46;;;;;;;;;;;;;;;;;;345724;28;920;-66
2022/08/25 00:58:58;;;;;;;;;;;;;;;;;;345786;28;851;-66
2022/08/25 00:59:08;;;;;;;;;;;;;;;;;;345716;28;837;-66
2022/08/25 00:59:22;;;;;;;;;;;;;;;;;;345738;28;916;-66
2022/08/25 00:59:33;;;;;;;;;;;;;;;;;;345717;28;952;-66
2022/08/25 00:59:43;;;;;;;;;;;;;;;;;;345636;28;999;-66
2022/08/25 00:59:53;;;;;;;;;;;;;;;;;;345664;28;846;-66
2022/08/25 01:00:07;;;;;;;;;;;;;;;;;;345759;28;801;-66
2022/08/25 01:00:19;;;;;;;;;;;;;;;;;;345619;28;1075;-66
2022/08/25 01:00:40;;;;;;;;;;;;;;;;;;345764;28;790;-66
2022/08/25 01:00:52;;;;;;;;;;;;;;;;;;345707;28;871;-66
2022/08/25 01:01:03;;;;;;;;;;;;;;;;;;345753;28;868;-66
2022/08/25 01:01:13;;;;;;;;;;;;;;;;;;345681;28;1077;-66
2022/08/25 01:01:24;;;;;;;;;;;;;;;;;;345640;28;945;-66
2022/08/25 01:01:34;;;;;;;;;;;;;;;;;;345734;28;971;-66
2022/08/25 01:01:45;;;;;;;;;;;;;;;;;;345710;28;975;-66
2022/08/25 01:01:56;;;;;;;;;;;;;;;;;;345629;28;1044;-66
2022/08/25 01:02:06;;;;;;;;;;;;;;;;;;345787;28;790;-66
2022/08/25 01:02:17;;;;;;;;;;;;;;;;;;345752;28;960;-66
2022/08/25 01:02:27;;;;;;;;;;;;;;;;;;345718;28;924;-66
2022/08/25 01:02:37;;;;;;;;;;;;;;;;;;345689;28;1015;-66
2022/08/25 01:02:48;;;;;;;;;;;;;;;;;;345714;28;957;-66
2022/08/25 01:02:59;;;;;;;;;;;;;;;;;;345690;28;999;-66
2022/08/25 01:03:10;;;;;;;;;;;;;;;;;;345532;28;1285;-66
2022/08/25 01:03:21;;;;;;;;;;;;;;;;;;345711;28;952;-66
2022/08/25 01:03:32;;;;;;;;;;;;;;;;;;345712;28;980;-66
2022/08/25 01:03:42;;;;;;;;;;;;;;;;;;345689;28;884;-66
2022/08/25 01:03:52;;;;;;;;;;;;;;;;;;345675;28;979;-66
2022/08/25 01:04:03;;;;;;;;;;;;;;;;;;345758;28;949;-65
2022/08/25 01:04:13;;;;;;;;;;;;;;;;;;345652;28;1207;-66
2022/08/25 01:04:24;;;;;;;;;;;;;;;;;;345748;28;793;-66
2022/08/25 01:04:34;;;;;;;;;;;;;;;;;;345707;28;988;-66
2022/08/25 01:04:45;;;;;;;;;;;;;;;;;;345736;28;834;-66
2022/08/25 01:04:55;;;;;;;;;;;;;;;;;;345713;28;897;-66
2022/08/25 01:05:06;;;;;;;;;;;;;;;;;;345739;28;1002;-66
2022/08/25 01:05:18;;;;;;;;;;;;;;;;;;344475;28;1169;-66
2022/08/25 01:05:28;;;;;;;;;;;;;;;;;;344240;28;1396;-66
2022/08/25 01:05:40;;;;;;;;;;;;;;;;;;344350;28;964;-66
2022/08/25 01:05:51;;;;;;;;;;;;;;;;;;344272;28;989;-66
2022/08/25 01:06:02;;;;;;;;;;;;;;;;;;344323;28;905;-66
2022/08/25 01:06:13;;;;;;;;;;;;;;;;;;344349;28;997;-66
2022/08/25 01:06:23;;;;;;;;;;;;;;;;;;344296;28;1024;-66
2022/08/25 01:06:35;;;;;;;;;;;;;;;;;;344333;28;873;-66
2022/08/25 01:06:46;;;;;;;;;;;;;;;;;;344387;28;911;-66
2022/08/25 01:06:58;;;;;;;;;;;;;;;;;;344283;28;937;-66
2022/08/25 01:07:08;;;;;;;;;;;;;;;;;;344188;28;1324;-66
2022/08/25 01:07:19;;;;;;;;;;;;;;;;;;344291;28;1284;-66
2022/08/25 01:07:30;;;;;;;;;;;;;;;;;;349960;28;1027;-67
2022/08/25 01:07:42;;;;;;;;;;;;;;;;;;350022;28;1051;-66
2022/08/25 01:07:53;;;;;;;;;;;;;;;;;;349957;28;917;-66
2022/08/25 01:08:05;;;;;;;;;;;;;;;;;;349951;28;992;-66
2022/08/25 01:08:17;;;;;;;;;;;;;;;;;;350036;28;960;-66
2022/08/25 01:08:28;;;;;;;;;;;;;;;;;;350025;28;960;-66
2022/08/25 01:08:38;;;;;;;;;;;;;;;;;;349993;28;920;-66
2022/08/25 01:08:50;;;;;;;;;;;;;;;;;;350005;28;928;-66
2022/08/25 01:09:00;;;;;;;;;;;;;;;;;;350011;28;1015;-66
2022/08/25 01:09:12;;;;;;;;;;;;;;;;;;349986;28;1071;-66
2022/08/25 01:09:22;;;;;;;;;;;;;;;;;;349986;28;965;-66
2022/08/25 01:09:32;;;;;;;;;;;;;;;;;;350048;28;920;-66
2022/08/25 01:09:45;;;;;;;;;;;;;;;;;;350041;28;814;-66
2022/08/25 01:09:55;;;;;;;;;;;;;;;;;;350009;28;973;-66
2022/08/25 01:10:06;;;;;;;;;;;;;;;;;;349961;28;913;-66
2022/08/25 01:10:17;;;;;;;;;;;;;;;;;;350020;28;992;-65
2022/08/25 01:10:29;;;;;;;;;;;;;;;;;;349964;28;1910;-66
2022/08/25 01:10:42;;;;;;;;;;;;;;;;;;350048;28;1011;-66
2022/08/25 01:10:52;;;;;;;;;;;;;;;;;;349944;28;888;-66
2022/08/25 01:11:04;;;;;;;;;;;;;;;;;;350014;28;1003;-65
2022/08/25 01:11:15;;;;;;;;;;;;;;;;;;350041;28;921;-66
2022/08/25 01:11:26;;;;;;;;;;;;;;;;;;350048;28;1129;-65
2022/08/25 01:11:37;;;;;;;;;;;;;;;;;;349990;28;940;-66
2022/08/25 01:11:47;;;;;;;;;;;;;;;;;;350094;28;825;-66
2022/08/25 01:11:58;;;;;;;;;;;;;;;;;;350004;28;1079;-66
2022/08/25 01:12:08;;;;;;;;;;;;;;;;;;349960;28;936;-66
2022/08/25 01:12:19;;;;;;;;;;;;;;;;;;350032;28;987;-66
2022/08/25 01:12:29;;;;;;;;;;;;;;;;;;350025;28;1015;-66
2022/08/25 01:12:40;;;;;;;;;;;;;;;;;;350057;28;849;-66
2022/08/25 01:12:52;;;;;;;;;;;;;;;;;;349983;28;933;-66
2022/08/25 01:13:06;;;;;;;;;;;;;;;;;;349989;28;995;-66
2022/08/25 01:13:22;;;;;;;;;;;;;;;;;;350052;28;920;-66
2022/08/25 01:13:35;;;;;;;;;;;;;;;;;;350040;28;932;-66
2022/08/25 01:13:49;;;;;;;;;;;;;;;;;;349953;28;1015;-66
2022/08/25 01:14:02;;;;;;;;;;;;;;;;;;350066;28;929;-65
2022/08/25 01:14:14;;;;;;;;;;;;;;;;;;349914;28;940;-66
2022/08/25 01:14:25;;;;;;;;;;;;;;;;;;350012;28;975;-66
2022/08/25 01:14:36;;;;;;;;;;;;;;;;;;349931;28;1055;-66
2022/08/25 01:14:47;;;;;;;;;;;;;;;;;;350018;28;928;-66
2022/08/25 01:14:59;;;;;;;;;;;;;;;;;;350055;28;804;-66
2022/08/25 01:15:10;;;;;;;;;;;;;;;;;;349961;28;1149;-66
2022/08/25 01:15:21;;;;;;;;;;;;;;;;;;350053;28;896;-66
2022/08/25 01:15:32;;;;;;;;;;;;;;;;;;350007;28;935;-66
2022/08/25 01:15:43;;;;;;;;;;;;;;;;;;350034;28;956;-66
2022/08/25 01:15:54;;;;;;;;;;;;;;;;;;350048;28;864;-66
2022/08/25 01:16:04;;;;;;;;;;;;;;;;;;350022;28;995;-65
2022/08/25 01:16:15;;;;;;;;;;;;;;;;;;349939;28;944;-66
2022/08/25 01:16:26;;;;;;;;;;;;;;;;;;349937;28;857;-66
2022/08/25 01:16:37;;;;;;;;;;;;;;;;;;349905;28;1038;-66
2022/08/25 01:16:47;;;;;;;;;;;;;;;;;;350025;28;849;-66
2022/08/25 01:16:58;;;;;;;;;;;;;;;;;;350005;28;959;-66
2022/08/25 01:17:08;;;;;;;;;;;;;;;;;;349992;28;1050;-65
2022/08/25 01:17:20;;;;;;;;;;;;;;;;;;349924;28;1097;-66
2022/08/25 01:17:51;;;;;;;;;;;;;;;;;;350013;28;940;-66
2022/08/25 01:18:01;;;;;;;;;;;;;;;;;;350036;28;873;-65
2022/08/25 01:18:12;;;;;;;;;;;;;;;;;;349929;28;1047;-66
2022/08/25 01:18:23;;;;;;;;;;;;;;;;;;349970;28;904;-66
2022/08/25 01:18:48;;;;;;;;;;;;;;;;;;350029;28;912;-66
2022/08/25 01:18:59;;;;;;;;;;;;;;;;;;350008;28;971;-66
2022/08/25 01:19:12;;;;;;;;;;;;;;;;;;349962;28;1017;-66
2022/08/25 01:19:23;;;;;;;;;;;;;;;;;;350024;28;939;-66
2022/08/25 01:19:34;;;;;;;;;;;;;;;;;;350026;28;841;-66
2022/08/25 01:19:44;;;;;;;;;;;;;;;;;;350029;28;932;-66
2022/08/25 01:19:54;;;;;;;;;;;;;;;;;;349978;28;968;-66
2022/08/25 01:20:05;;;;;;;;;;;;;;;;;;350008;28;927;-65
2022/08/25 01:20:17;;;;;;;;;;;;;;;;;;349903;28;1165;-65
2022/08/25 01:20:29;;;;;;;;;;;;;;;;;;350023;28;786;-66
2022/08/25 01:20:40;;;;;;;;;;;;;;;;;;349993;28;984;-65
2022/08/25 01:20:54;;;;;;;;;;;;;;;;;;350072;28;916;-66
2022/08/25 01:21:04;;;;;;;;;;;;;;;;;;350010;28;924;-65
2022/08/25 01:21:16;;;;;;;;;;;;;;;;;;350013;28;1026;-66